Time;durP1;ratioP1;P1;durP2;ratioP2;P2;SDS_P1;SDS_P2;PMS_P1;PMS_P2;Temp;Humidity;BMP_temperature;BMP_pressure;BME280_temperature;BME280_humidity;BME280_pressure;Samples;Min_cycle;Max_cycle;Signal;HPM_P1;HPM_P2
2022/07/02 00:00:16;;;;;;;3.40;0.90;;;24.20;53.30;;;22.80;49.93;102155.59;5034657;28;20045;-57
2022/07/02 00:02:43;;;;;;;2.22;0.77;;;24.00;84.50;;;22.80;50.00;102157.50;5034599;28;20061;-56
2022/07/02 00:05:13;;;;;;;1.58;0.90;;;24.30;84.80;;;22.80;49.91;102163.06;5034418;28;20125;-56
2022/07/02 00:07:38;;;;;;;2.83;0.82;;;24.20;72.20;;;22.79;50.02;102151.09;5034874;28;20054;-56
2022/07/02 00:10:05;;;;;;;4.22;1.17;;;24.40;84.90;;;22.78;49.97;102151.28;5033289;28;20072;-57
2022/07/02 00:12:31;;;;;;;2.35;0.70;;;24.00;59.50;;;22.78;49.94;102146.59;5034722;28;20037;-56
2022/07/02 00:14:59;;;;;;;1.58;0.80;;;24.10;53.40;;;22.77;49.92;102152.38;5034428;28;20033;-56
2022/07/02 00:17:26;;;;;;;3.10;0.82;;;23.60;54.80;;;22.77;49.94;102144.06;5034358;28;20112;-55
2022/07/02 00:19:53;;;;;;;1.95;0.82;;;24.10;53.50;;;22.75;49.76;102149.78;5034409;28;20453;-56
2022/07/02 00:22:20;;;;;;;2.40;0.68;;;24.10;53.40;;;22.76;50.01;102150.66;5034311;28;20397;-56
2022/07/02 00:24:46;;;;;;;1.75;0.65;;;24.20;84.60;;;22.74;50.04;102142.56;5034330;28;20411;-56
2022/07/02 00:27:16;;;;;;;3.10;0.90;;;24.00;85.00;;;22.73;49.92;102145.53;5034160;28;20049;-55
2022/07/02 00:29:51;;;;;;;1.23;0.60;;;24.10;74.20;;;22.73;50.08;102146.38;5034274;28;20029;-54
2022/07/02 00:32:18;;;;;;;3.17;0.80;;;23.90;84.70;;;22.73;49.94;102139.97;5032954;28;20107;-56
2022/07/02 00:34:45;;;;;;;1.80;0.98;;;24.10;84.80;;;22.72;49.99;102135.53;5034080;28;20029;-56
2022/07/02 00:37:13;;;;;;;1.00;0.70;;;24.20;53.40;;;22.71;49.90;102134.66;5034103;28;20445;-56
2022/07/02 00:39:39;;;;;;;1.35;0.60;;;;;;;22.69;50.00;102142.31;5033995;28;20029;-56
2022/07/02 00:42:06;;;;;;;1.50;0.70;;;24.00;53.40;;;22.69;49.96;102142.31;5033906;28;20036;-50
2022/07/02 00:44:33;;;;;;;0.90;0.60;;;24.10;85.10;;;22.69;49.94;102139.53;5033871;28;20041;-51
2022/07/02 00:47:07;;;;;;;1.58;0.70;;;24.00;53.50;;;22.67;49.89;102142.53;5033845;28;20038;-49
2022/07/02 00:49:37;;;;;;;1.67;0.60;;;24.00;85.20;;;22.67;49.97;102139.78;5034039;28;20025;-51
2022/07/02 00:52:04;;;;;;;1.92;0.50;;;24.20;78.90;;;22.67;49.91;102141.69;5033701;28;20045;-52
2022/07/02 00:54:30;;;;;;;1.65;0.73;;;23.80;85.00;;;22.67;49.95;102138.91;5033732;28;20025;-50
2022/07/02 00:56:57;;;;;;;1.50;0.70;;;23.90;85.00;;;22.66;49.91;102145.50;5033662;28;20087;-50
2022/07/02 00:59:25;;;;;;;2.45;0.73;;;24.00;53.40;;;22.65;49.92;102141.91;5033591;28;20497;-49
2022/07/02 01:01:52;;;;;;;1.60;0.57;;;23.50;84.80;;;22.64;50.01;102140.19;5032674;28;20396;-48
2022/07/02 01:04:19;;;;;;;1.95;0.80;;;24.20;73.20;;;22.64;49.98;102144.84;5032738;28;20439;-50
2022/07/02 01:06:45;;;;;;;2.35;1.00;;;24.00;55.00;;;22.63;49.87;102141.22;5033299;28;20037;-50
2022/07/02 01:12:11;;;;;;;1.50;0.82;;;24.20;70.70;;;22.62;49.91;102142.28;4996509;28;20058;-49
2022/07/02 01:14:37;;;;;;;2.78;0.98;;;24.00;53.40;;;22.61;49.86;102140.56;5033386;28;20056;-51
2022/07/02 01:17:04;;;;;;;1.65;0.70;;;;;;;22.61;49.74;102132.25;5032090;28;20111;-50
2022/07/02 01:19:29;;;;;;;1.35;0.57;;;23.70;76.50;;;22.61;49.88;102137.81;5033141;28;20034;-50
2022/07/02 01:22:31;;;;;;;1.55;0.60;;;24.40;53.40;;;22.59;49.88;102137.16;5032153;28;20033;-50
2022/07/02 01:24:57;;;;;;;1.65;0.70;;;;;;;22.59;49.67;102142.72;5033128;28;20042;-49
2022/07/02 01:27:23;;;;;;;1.67;0.88;;;23.90;53.30;;;22.59;49.95;102136.31;5033024;28;20033;-51
2022/07/02 01:29:50;;;;;;;2.90;0.68;;;23.30;54.00;;;22.59;49.63;102148.25;5032986;28;20044;-49
2022/07/02 01:32:16;;;;;;;2.53;0.70;;;23.90;84.90;;;22.58;49.83;102141.00;5032953;28;20095;-51
2022/07/02 01:34:46;;;;;;;2.22;0.75;;;23.80;84.90;;;22.58;49.79;102137.38;5032908;28;20037;-51
2022/07/02 01:37:14;;;;;;;1.03;0.60;;;24.20;83.30;;;22.56;49.77;102140.34;5032963;28;20357;-50
2022/07/02 01:39:42;;;;;;;1.63;0.68;;;23.90;85.00;;;22.56;49.80;102143.13;5032876;28;20296;-50
2022/07/02 01:42:09;;;;;;;1.58;0.50;;;23.60;53.20;;;22.56;49.86;102139.50;5033093;28;20053;-51
2022/07/02 01:44:36;;;;;;;1.20;0.60;;;23.70;85.00;;;22.56;49.73;102142.28;5032679;28;20040;-50
2022/07/02 01:47:06;;;;;;;0.70;0.50;;;23.80;85.00;;;22.55;49.87;102133.09;5032996;28;20095;-52
2022/07/02 01:49:31;;;;;;;1.75;0.70;;;23.80;71.40;;;22.55;49.70;102137.78;5032723;28;20065;-50
2022/07/02 01:51:57;;;;;;;1.35;0.50;;;;;;;22.53;49.90;102128.81;5032620;28;20072;-50
2022/07/02 01:54:23;;;;;;;0.70;0.60;;;23.80;65.50;;;22.53;49.77;102140.78;5032919;28;20025;-51
2022/07/02 01:56:50;;;;;;;2.45;0.82;;;;;;;22.52;49.77;102136.28;5032588;28;20496;-50
2022/07/02 01:59:16;;;;;;;2.85;0.73;;;23.90;65.60;;;22.52;49.77;102143.75;5032527;28;20051;-50
2022/07/02 02:01:43;;;;;;;1.85;0.70;;;24.00;85.20;;;22.51;49.96;102136.47;5032466;28;20049;-51
2022/07/02 02:04:09;;;;;;;0.95;0.70;;;23.80;85.40;;;22.50;49.65;102141.19;5032269;28;20037;-50
2022/07/02 02:06:37;;;;;;;1.65;0.60;;;;;;;22.50;49.92;102141.19;5032326;28;20044;-50
2022/07/02 02:09:03;;;;;;;0.82;0.57;;;23.60;85.20;;;22.50;49.75;102140.34;5032338;28;20488;-50
2022/07/02 02:11:29;;;;;;;0.82;0.50;;;;;;;22.48;49.87;102140.53;5031091;28;20037;-50
2022/07/02 02:13:59;;;;;;;2.05;0.47;;;23.80;58.60;;;22.48;49.87;102140.53;5032261;28;20036;-50
2022/07/02 02:16:30;;;;;;;1.40;0.50;;;23.80;85.60;;;22.47;50.01;102136.06;5031323;28;20112;-50
2022/07/02 02:18:58;;;;;;;0.60;0.50;;;23.80;85.60;;;22.47;49.87;102138.84;5032323;28;20029;-50
2022/07/02 02:21:27;;;;;;;1.05;0.63;;;24.00;85.30;;;22.47;49.76;102137.97;5032192;28;20041;-50
2022/07/02 02:23:54;;;;;;;2.63;0.60;;;23.80;85.30;;;22.47;49.93;102138.84;5032283;28;20065;-50
2022/07/02 02:26:21;;;;;;;1.35;0.63;;;23.70;73.60;;;22.45;49.88;102135.41;5032193;28;20041;-49
2022/07/02 02:28:47;;;;;;;1.08;0.70;;;23.80;85.50;;;22.45;49.72;102129.03;5032177;28;20026;-51
2022/07/02 02:31:13;;;;;;;1.20;0.60;;;23.90;85.40;;;22.44;49.78;102139.25;5032272;28;20107;-51
2022/07/02 02:33:39;;;;;;;1.15;0.52;;;24.00;85.50;;;22.44;49.79;102135.63;5032253;28;20083;-52
2022/07/02 02:36:05;;;;;;;1.65;0.40;;;23.70;85.00;;;22.44;49.83;102149.50;5032060;28;20029;-50
2022/07/02 02:38:31;;;;;;;1.02;0.45;;;23.60;85.00;;;22.43;49.64;102137.53;5032014;28;20036;-51
2022/07/02 02:40:57;;;;;;;1.05;0.50;;;23.90;85.40;;;22.43;49.94;102142.22;5032036;28;20060;-50
2022/07/02 02:43:23;;;;;;;1.33;0.50;;;;;;;22.41;49.81;102134.13;5031969;28;20072;-50
2022/07/02 02:45:48;;;;;;;1.67;0.73;;;23.60;85.10;;;22.41;49.93;102133.28;5031813;28;20038;-50
2022/07/02 02:48:15;;;;;;;1.55;0.70;;;24.00;85.50;;;22.40;49.79;102129.63;5031884;28;20037;-52
2022/07/02 02:50:41;;;;;;;0.65;0.50;;;;;;;22.40;49.68;102126.88;5031998;28;20034;-48
2022/07/02 02:53:08;;;;;;;0.80;0.43;;;;;;;22.39;49.78;102124.31;5031967;28;20397;-52
2022/07/02 02:55:33;;;;;;;1.20;0.47;;;23.80;70.90;;;22.39;49.76;102116.00;5031803;28;20120;-50
2022/07/02 02:57:59;;;;;;;0.70;0.52;;;;;;;22.38;49.89;102117.91;5031793;28;20124;-49
2022/07/02 03:00:27;;;;;;;1.20;0.40;;;;;;;22.37;49.62;102115.31;5031829;28;20034;-49
2022/07/02 03:02:52;;;;;;;1.77;0.40;;;23.80;85.60;;;22.37;49.90;102118.09;5031721;28;20061;-50
2022/07/02 03:05:18;;;;;;;1.45;0.40;;;23.90;85.50;;;22.35;49.77;102126.66;5031588;28;20073;-50
2022/07/02 03:07:44;;;;;;;1.10;0.55;;;23.50;85.40;;;22.35;49.82;102132.19;5031767;28;20037;-50
2022/07/02 03:10:10;;;;;;;1.40;0.75;;;23.80;85.70;;;22.34;49.87;102124.94;5031867;28;20029;-50
2022/07/02 03:12:36;;;;;;;0.80;0.40;;;23.80;85.10;;;22.34;49.67;102127.69;5031734;28;20033;-49
2022/07/02 03:15:02;;;;;;;1.58;0.50;;;23.70;78.80;;;22.34;49.82;102130.47;5031729;28;20033;-50
2022/07/02 03:17:27;;;;;;;1.45;0.57;;;23.70;60.80;;;22.33;49.64;102139.84;5031717;28;20037;-50
2022/07/02 03:19:53;;;;;;;2.13;0.57;;;;;;;22.33;49.68;102139.84;5031709;28;20025;-52
2022/07/02 03:22:19;;;;;;;1.42;0.30;;;;;;;22.32;49.76;102143.69;5031921;28;20488;-49
2022/07/02 03:24:45;;;;;;;2.05;0.50;;;;;;;22.31;49.85;102141.97;5031519;28;20052;-50
2022/07/02 03:27:11;;;;;;;0.65;0.40;;;;;;;22.31;49.68;102144.75;5033062;28;20033;-49
2022/07/02 03:29:38;;;;;;;1.08;0.40;;;;;;;22.32;49.93;102148.38;5035278;28;20044;-53
2022/07/02 03:32:04;;;;;;;1.05;0.40;;;23.70;65.80;;;22.30;49.74;102153.28;5035168;28;20037;-50
2022/07/02 03:34:30;;;;;;;1.23;0.57;;;23.30;85.30;;;22.30;49.76;102156.06;5034154;28;20498;-51
2022/07/02 03:36:56;;;;;;;0.77;0.43;;;;;;;22.29;49.80;102160.75;5035059;28;20030;-50
2022/07/02 03:39:21;;;;;;;1.25;0.70;;;23.80;70.40;;;22.29;49.64;102160.75;5033822;28;20057;-49
2022/07/02 03:41:47;;;;;;;1.02;0.60;;;;;;;22.28;49.76;102156.25;5034934;28;20033;-49
2022/07/02 03:44:13;;;;;;;1.17;0.47;;;;;;;22.29;49.76;102162.66;5034957;28;20139;-49
2022/07/02 03:46:40;;;;;;;1.30;0.70;;;;;;;22.28;49.87;102160.94;5034959;28;20117;-49
2022/07/02 03:49:05;;;;;;;1.83;0.65;;;23.80;66.70;;;22.27;49.94;102154.53;5034908;28;20044;-50
2022/07/02 03:51:31;;;;;;;1.38;0.40;;;;;;;22.26;49.87;102155.63;5034889;28;20396;-50
2022/07/02 03:53:57;;;;;;;0.75;0.50;;;;;;;22.26;49.72;102154.75;5034783;28;20088;-50
2022/07/02 03:56:24;;;;;;;1.30;0.55;;;;;;;22.25;49.98;102151.13;5034771;28;20033;-49
2022/07/02 03:58:49;;;;;;;0.60;0.50;;;23.60;69.60;;;22.24;49.80;102154.94;5034717;28;20034;-49
2022/07/02 04:01:16;;;;;;;1.60;0.52;;;;;;;22.25;49.73;102158.56;5034786;28;20041;-51
2022/07/02 04:03:42;;;;;;;0.85;0.40;;;;;;;22.24;49.92;102156.88;5034651;28;20037;-49
2022/07/02 04:06:07;;;;;;;2.58;0.65;;;23.70;71.80;;;22.23;49.83;102164.34;5034540;28;20046;-50
2022/07/02 04:08:34;;;;;;;0.77;0.43;;;;;;;22.23;49.67;102167.13;5034543;28;20183;-49
2022/07/02 04:10:59;;;;;;;0.77;0.57;;;23.70;70.30;;;22.23;49.76;102169.88;5034424;28;20030;-50
2022/07/02 04:13:25;;;;;;;1.90;0.60;;;;;;;22.23;50.01;102177.34;5034469;28;20078;-51
2022/07/02 04:15:51;;;;;;;0.60;0.47;;;;;;;22.23;49.81;102180.13;5034376;28;20033;-53
2022/07/02 04:18:18;;;;;;;0.95;0.50;;;23.50;53.40;;;22.22;49.80;102178.41;5034397;28;20530;-52
2022/07/02 04:20:44;;;;;;;1.48;0.57;;;23.40;85.00;;;22.22;49.80;102186.72;5034248;28;20534;-54
2022/07/02 04:23:10;;;;;;;1.15;0.50;;;23.40;85.30;;;22.20;49.90;102181.38;5034305;28;20068;-52
2022/07/02 04:25:37;;;;;;;1.15;0.43;;;23.70;85.50;;;22.20;49.67;102177.75;5034197;28;20464;-51
2022/07/02 04:28:03;;;;;;;1.85;0.43;;;23.70;85.50;;;22.20;49.86;102178.63;5034460;28;20443;-51
2022/07/02 04:30:29;;;;;;;0.77;0.50;;;23.30;61.80;;;22.19;49.55;102182.44;5034106;28;20048;-51
2022/07/02 04:32:55;;;;;;;1.33;0.40;;;;;;;22.19;49.80;102168.56;5034083;28;20033;-50
2022/07/02 04:35:22;;;;;;;1.08;0.50;;;;;;;22.19;49.65;102174.13;5034379;28;20030;-51
2022/07/02 04:37:47;;;;;;;1.42;0.45;;;23.40;64.90;;;22.17;49.73;102170.72;5033812;28;20396;-51
2022/07/02 04:40:14;;;;;;;1.15;0.40;;;;;;;22.18;49.84;102174.34;5033472;28;20112;-53
2022/07/02 04:42:39;;;;;;;0.95;0.45;;;23.40;66.90;;;22.17;49.86;102170.72;5034314;28;20087;-51
2022/07/02 04:45:06;;;;;;;0.65;0.40;;;23.30;53.30;;;22.17;49.77;102175.41;5033783;28;20365;-51
2022/07/02 04:47:32;;;;;;;1.50;0.40;;;23.60;85.30;;;22.17;49.82;102164.31;5033775;28;20041;-51
2022/07/02 04:49:58;;;;;;;0.50;0.47;;;23.50;62.30;;;22.16;49.78;102169.00;5034063;28;20104;-50
2022/07/02 04:52:24;;;;;;;1.98;0.43;;;;;;;22.16;49.85;102180.06;5033758;28;20029;-51
2022/07/02 04:54:50;;;;;;;0.50;0.40;;;23.40;65.00;;;22.15;49.80;102175.63;5033674;28;20438;-50
2022/07/02 04:57:16;;;;;;;0.60;0.40;;;23.70;85.60;;;22.15;49.77;102170.06;5033559;28;20057;-51
2022/07/02 04:59:44;;;;;;;0.90;0.40;;;23.60;85.50;;;22.15;49.90;102167.31;5033545;28;20118;-53
2022/07/02 05:02:13;;;;;;;2.33;0.50;;;23.00;85.10;;;22.15;49.77;102164.53;5033492;28;20033;-52
2022/07/02 05:04:39;;;;;;;1.27;0.40;;;;;;;22.15;49.74;102167.31;5033307;28;20121;-51
2022/07/02 05:07:05;;;;;;;2.15;0.32;;;;;;;22.15;49.89;102175.63;5033488;28;20040;-51
2022/07/02 05:09:32;;;;;;;1.10;0.40;;;;;;;22.15;49.69;102175.63;5033498;28;20117;-52
2022/07/02 05:11:58;;;;;;;1.52;0.40;;;23.50;70.70;;;22.14;49.80;102176.66;5033428;28;20108;-51
2022/07/02 05:14:24;;;;;;;1.88;0.60;;;;;;;22.13;49.96;102175.81;5033348;28;20041;-51
2022/07/02 05:16:50;;;;;;;0.77;0.30;;;22.90;80.70;;;22.14;49.74;102176.66;5033302;28;20436;-51
2022/07/02 05:19:15;;;;;;;1.30;0.43;;;23.20;79.30;;;22.13;49.80;102180.50;5033625;28;20052;-51
2022/07/02 05:21:43;;;;;;;0.95;0.40;;;;;;;22.13;49.95;102178.56;5033261;28;20041;-52
2022/07/02 05:24:10;;;;;;;1.02;0.38;;;;;;;22.12;49.80;102187.94;5033108;28;20033;-50
2022/07/02 05:26:36;;;;;;;0.85;0.43;;;23.20;84.90;;;22.12;49.66;102182.41;5033064;28;20438;-50
2022/07/02 05:29:02;;;;;;;1.00;0.40;;;23.60;83.60;;;22.13;49.76;102180.50;5033054;28;20029;-54
2022/07/02 05:31:28;;;;;;;0.75;0.55;;;23.20;84.40;;;22.12;49.82;102184.34;5032969;28;20065;-53
2022/07/02 05:33:54;;;;;;;0.70;0.40;;;23.10;84.60;;;22.11;49.75;102189.03;5033056;28;20076;-53
2022/07/02 05:36:20;;;;;;;1.00;0.30;;;23.40;84.70;;;22.12;49.73;102178.81;5032956;28;20041;-53
2022/07/02 05:38:46;;;;;;;1.25;0.50;;;23.30;74.90;;;22.10;49.83;102184.53;5032931;28;20594;-51
2022/07/02 05:41:12;;;;;;;1.92;0.40;;;;;;;22.12;49.61;102184.34;5032772;28;20404;-52
2022/07/02 05:43:38;;;;;;;0.60;0.40;;;;;;;22.11;49.78;102185.41;5032743;28;20029;-51
2022/07/02 05:46:03;;;;;;;1.17;0.55;;;23.50;63.80;;;22.11;49.96;102185.41;5032675;28;20437;-52
2022/07/02 05:48:29;;;;;;;1.27;0.47;;;;;;;22.11;49.86;102185.41;5032652;28;20035;-51
2022/07/02 05:50:55;;;;;;;0.75;0.30;;;;;;;22.11;49.77;102183.47;5032429;28;20034;-52
2022/07/02 05:53:22;;;;;;;0.43;0.32;;;;;;;22.10;49.86;102180.91;5032683;28;20029;-51
2022/07/02 05:55:48;;;;;;;2.15;0.55;;;;;;;22.10;49.85;102180.91;5032721;28;20384;-54
2022/07/02 05:58:13;;;;;;;1.60;0.65;;;23.60;85.00;;;22.09;49.77;102185.59;5032562;28;20442;-54
2022/07/02 06:00:39;;;;;;;1.17;0.55;;;;;;;22.10;49.57;102175.34;5032556;28;20041;-54
2022/07/02 06:03:06;;;;;;;1.20;0.40;;;;;;;22.09;49.86;102181.97;5032442;28;20026;-54
2022/07/02 06:08:16;;;;;;;0.90;0.45;;;23.70;70.20;;;22.09;49.77;102184.75;5032697;28;20091;-51
2022/07/02 06:10:42;;;;;;;1.02;0.50;;;;;;;22.09;49.85;102188.34;5032343;28;20037;-52
2022/07/02 06:13:07;;;;;;;0.52;0.30;;;23.40;64.40;;;22.08;49.83;102183.91;5032319;28;20365;-53
2022/07/02 06:15:33;;;;;;;0.85;0.45;;;;;;;22.09;49.89;102187.53;5032599;28;20048;-51
2022/07/02 06:18:00;;;;;;;0.90;0.43;;;23.40;53.10;;;22.09;49.79;102193.06;5032234;28;20029;-53
2022/07/02 06:20:27;;;;;;;1.30;0.32;;;23.60;84.50;;;22.08;49.84;102186.66;5032233;28;20123;-51
2022/07/02 06:22:53;;;;;;;1.17;0.40;;;23.30;84.30;;;22.08;49.84;102197.75;5031094;28;20446;-53
2022/07/02 06:25:19;;;;;;;1.20;0.50;;;23.60;84.50;;;22.08;49.63;102199.66;5032416;28;20029;-52
2022/07/02 06:27:45;;;;;;;1.08;0.45;;;23.10;84.30;;;22.08;49.79;102199.66;5032129;28;20044;-54
2022/07/02 06:30:11;;;;;;;0.82;0.38;;;23.40;84.60;;;22.08;49.89;102206.06;5032469;28;20091;-52
2022/07/02 06:32:38;;;;;;;0.93;0.50;;;;;;;22.09;49.78;102206.94;5032219;28;20068;-51
2022/07/02 06:35:04;;;;;;;1.23;0.45;;;23.40;60.20;;;22.08;49.67;102217.16;5032118;28;20061;-52
2022/07/02 06:37:30;;;;;;;1.50;0.38;;;;;;;22.08;49.76;102213.50;5032151;28;20045;-51
2022/07/02 06:39:57;;;;;;;0.85;0.35;;;23.40;84.40;;;22.07;49.63;102207.13;5032110;28;20034;-51
2022/07/02 06:42:23;;;;;;;1.40;0.40;;;23.30;84.30;;;22.07;49.92;102215.44;5032102;28;20088;-50
2022/07/02 06:44:54;;;;;;;0.65;0.40;;;23.50;84.60;;;22.07;49.92;102212.66;5031979;28;20034;-50
2022/07/02 06:47:23;;;;;;;0.75;0.40;;;23.40;79.60;;;22.07;49.93;102215.44;5032072;28;20476;-54
2022/07/02 06:49:50;;;;;;;0.90;0.50;;;23.30;84.50;;;22.07;49.90;102209.03;5030864;28;20104;-53
2022/07/02 06:52:17;;;;;;;0.45;0.43;;;23.30;84.80;;;22.07;50.05;102209.88;5031998;28;20331;-51
2022/07/02 06:54:44;;;;;;;0.60;0.30;;;23.50;84.40;;;22.07;49.92;102209.88;5031859;28;20037;-53
2022/07/02 06:57:10;;;;;;;0.40;0.38;;;23.50;63.40;;;22.08;50.06;102207.97;5031988;28;20033;-51
2022/07/02 06:59:37;;;;;;;1.73;0.40;;;23.80;85.00;;;22.09;49.79;102204.97;5031910;28;20057;-49
2022/07/02 07:02:04;;;;;;;1.83;0.63;;;23.40;84.90;;;22.10;50.04;102205.84;5033481;28;20038;-50
2022/07/02 07:04:30;;;;;;;0.85;0.43;;;23.50;84.80;;;22.08;50.10;102197.75;5035710;28;20076;-50
2022/07/02 07:07:00;;;;;;;0.60;0.40;;;23.50;84.50;;;22.09;50.06;102201.38;5035706;28;20033;-50
2022/07/02 07:09:27;;;;;;;6.07;0.40;;;23.80;83.40;;;22.11;50.07;102204.78;5035999;28;20403;-49
2022/07/02 07:11:53;;;;;;;1.30;0.40;;;23.80;85.00;;;22.10;50.04;102203.06;5035661;28;20045;-48
2022/07/02 07:14:20;;;;;;;1.85;0.40;;;23.50;53.20;;;22.09;50.21;102202.22;5035638;28;20116;-50
2022/07/02 07:16:46;;;;;;;3.00;0.50;;;23.30;63.70;;;22.08;49.84;102203.28;5035576;28;20476;-50
2022/07/02 07:19:12;;;;;;;3.13;0.60;;;23.30;73.80;;;22.08;50.28;102202.44;5035576;28;20040;-49
2022/07/02 07:21:40;;;;;;;1.77;0.50;;;23.30;71.80;;;22.07;50.28;102203.47;5035496;28;20504;-51
2022/07/02 07:24:07;;;;;;;1.10;0.40;;;23.60;73.40;;;22.06;50.19;102208.16;5035504;28;20038;-50
2022/07/02 07:26:34;;;;;;;0.85;0.30;;;23.40;84.90;;;22.06;50.03;102205.38;5035419;28;20041;-50
2022/07/02 07:29:05;;;;;;;1.35;0.55;;;23.00;84.50;;;22.07;50.18;102209.03;5034158;28;20065;-49
2022/07/02 07:31:32;;;;;;;1.35;0.40;;;;;;;22.06;49.94;102210.09;5035356;28;20044;-50
2022/07/02 07:33:58;;;;;;;1.67;0.30;;;23.50;76.70;;;22.05;50.19;102212.00;5035218;28;20389;-52
2022/07/02 07:36:26;;;;;;;2.95;0.57;;;23.50;85.10;;;22.04;50.33;102209.44;5035180;28;20034;-48
2022/07/02 07:38:53;;;;;;;0.90;0.40;;;23.50;85.00;;;22.04;50.27;102209.44;5035149;28;20065;-50
2022/07/02 07:41:20;;;;;;;1.05;0.40;;;23.50;80.80;;;22.06;50.00;102210.09;5034909;28;20377;-49
2022/07/02 07:43:47;;;;;;;3.90;0.50;;;;;;;22.10;50.37;102203.06;5033304;28;20037;-51
2022/07/02 07:46:12;;;;;;;2.10;0.30;;;22.90;84.20;;;22.12;50.41;102204.56;5032000;28;20049;-48
2022/07/02 07:48:38;;;;;;;0.93;0.40;;;23.70;85.20;;;22.12;50.64;102207.34;5034170;28;20029;-48
2022/07/02 07:51:07;;;;;;;1.83;0.52;;;23.80;85.50;;;22.13;50.82;102208.19;5033746;28;20098;-51
2022/07/02 07:53:33;;;;;;;0.93;0.50;;;23.20;85.60;;;22.14;50.89;102207.16;5034795;28;20099;-50
2022/07/02 07:55:59;;;;;;;3.63;0.35;;;23.70;86.00;;;22.15;50.91;102200.56;5034846;28;20634;-50
2022/07/02 07:58:25;;;;;;;2.58;0.47;;;23.30;86.50;;;22.14;51.54;102202.47;5035124;28;20524;-51
2022/07/02 08:00:52;;;;;;;2.40;0.57;;;;;;;22.14;51.17;102196.94;5034799;28;20033;-52
2022/07/02 08:03:19;;;;;;;1.35;0.40;;;23.30;85.90;;;22.15;51.16;102200.56;5034669;28;20034;-50
2022/07/02 08:05:53;;;;;;;2.47;0.40;;;23.70;86.60;;;22.14;51.49;102188.63;5034548;28;20492;-56
2022/07/02 08:08:23;;;;;;;2.92;0.70;;;;;;;22.12;51.35;102201.81;5034726;28;20476;-55
2022/07/02 08:10:49;;;;;;;1.42;0.50;;;23.50;86.40;;;22.13;51.48;102202.66;5034596;28;20120;-55
2022/07/02 08:13:15;;;;;;;0.45;0.30;;;23.60;86.50;;;22.12;51.50;102195.44;5034479;28;20029;-57
2022/07/02 08:15:42;;;;;;;5.00;0.40;;;;;;;22.13;51.24;102197.97;5034411;28;20083;-56
2022/07/02 08:18:08;;;;;;;3.35;0.30;;;23.60;63.30;;;22.13;51.18;102197.97;5034333;28;20044;-56
2022/07/02 08:20:34;;;;;;;1.15;0.30;;;23.30;70.90;;;22.14;51.14;102199.69;5034417;28;20044;-56
2022/07/02 08:23:00;;;;;;;2.20;0.60;;;23.50;85.80;;;22.13;50.94;102188.81;5034391;28;20507;-58
2022/07/02 08:25:26;;;;;;;1.40;0.32;;;23.10;72.10;;;22.14;50.79;102191.38;5033992;28;20065;-57
2022/07/02 08:27:52;;;;;;;6.07;0.60;;;23.50;85.60;;;22.14;50.66;102194.16;5034194;28;20061;-57
2022/07/02 08:30:18;;;;;;;1.05;0.40;;;;;;;22.15;50.72;102200.56;5034157;28;20068;-56
2022/07/02 08:32:44;;;;;;;3.88;0.40;;;23.70;66.80;;;22.15;50.49;102190.31;5033970;28;20033;-58
2022/07/02 08:35:10;;;;;;;3.92;0.57;;;23.60;68.60;;;22.15;50.62;102201.38;5034054;28;20029;-58
2022/07/02 08:37:36;;;;;;;5.95;0.80;;;23.80;84.30;;;22.15;50.36;102195.03;5033892;28;20041;-58
2022/07/02 08:40:03;;;;;;;2.15;0.70;;;23.60;76.60;;;22.17;50.23;102192.03;5033978;28;20038;-57
2022/07/02 08:42:31;;;;;;;1.42;0.60;;;23.80;84.40;;;22.17;50.04;102192.03;5032611;28;20033;-51
2022/07/02 08:45:03;;;;;;;3.60;1.00;;;23.20;83.90;;;22.17;49.68;102192.88;5033590;28;20044;-53
2022/07/02 08:47:30;;;;;;;4.50;0.75;;;23.50;83.90;;;22.18;49.68;102193.75;5033697;28;20413;-53
2022/07/02 08:49:58;;;;;;;2.20;0.82;;;23.60;70.60;;;22.20;49.83;102192.47;5033660;28;20034;-51
2022/07/02 08:52:26;;;;;;;2.67;0.60;;;23.60;83.50;;;22.22;49.61;102192.25;5033644;28;20038;-52
2022/07/02 08:54:54;;;;;;;2.63;0.68;;;23.80;83.80;;;22.24;49.63;102182.66;5033620;28;20033;-53
2022/07/02 08:57:21;;;;;;;4.85;0.65;;;23.80;64.80;;;22.25;49.14;102184.38;5033560;28;20064;-51
2022/07/02 08:59:47;;;;;;;4.72;0.70;;;;;;;22.27;49.40;102185.03;5033493;28;20435;-50
2022/07/02 09:02:15;;;;;;;3.13;0.40;;;23.70;52.10;;;22.29;49.05;102180.16;5033318;28;20450;-53
2022/07/02 09:04:49;;;;;;;3.83;1.20;;;23.70;52.00;;;22.32;49.21;102182.50;5032143;28;20045;-54
2022/07/02 09:07:17;;;;;;;4.50;1.17;;;24.10;54.20;;;22.35;49.21;102170.16;5033440;28;20037;-51
2022/07/02 09:09:44;;;;;;;7.40;0.60;;;;;;;22.39;48.92;102172.28;5033372;28;20033;-53
2022/07/02 09:12:13;;;;;;;1.23;0.65;;;24.00;81.00;;;22.43;49.13;102172.72;5033514;28;20028;-51
2022/07/02 09:14:40;;;;;;;4.82;1.00;;;23.80;82.70;;;22.45;48.95;102167.84;5033327;28;20056;-50
2022/07/02 09:17:08;;;;;;;1.42;0.40;;;23.80;79.40;;;22.48;48.84;102159.94;5033233;28;20061;-50
2022/07/02 09:19:35;;;;;;;3.78;1.17;;;24.10;82.60;;;22.50;48.88;102168.94;5033333;28;20044;-51
2022/07/02 09:22:02;;;;;;;2.50;0.47;;;23.90;82.40;;;22.53;48.77;102162.09;5033298;28;20053;-51
2022/07/02 09:24:39;;;;;;;3.95;0.60;;;24.10;51.60;;;22.56;48.79;102164.47;5032592;28;20044;-54
2022/07/02 09:27:09;;;;;;;4.78;0.93;;;24.10;51.70;;;22.59;48.60;102162.13;5033039;28;20044;-53
2022/07/02 09:29:45;;;;;;;1.35;0.70;;;24.20;51.50;;;22.63;48.73;102165.31;5033119;28;20044;-51
2022/07/02 09:32:12;;;;;;;2.40;0.47;;;24.20;82.10;;;22.65;48.92;102166.88;5032911;28;20041;-51
2022/07/02 09:34:44;;;;;;;2.40;0.65;;;24.50;77.60;;;22.68;48.76;102152.59;5033125;28;20377;-53
2022/07/02 09:37:14;;;;;;;5.13;0.68;;;24.30;51.40;;;22.72;48.74;102147.44;5032810;28;20503;-53
2022/07/02 09:39:43;;;;;;;6.20;0.82;;;24.00;82.00;;;22.75;48.65;102140.63;5032782;28;20492;-50
2022/07/02 09:42:22;;;;;;;1.15;0.45;;;;;;;22.78;48.51;102140.19;5032715;28;20119;-52
2022/07/02 09:44:48;;;;;;;4.00;0.60;;;24.10;64.10;;;22.81;48.07;102143.41;5032784;28;20033;-52
2022/07/02 09:47:14;;;;;;;2.63;0.47;;;24.70;81.60;;;22.85;48.11;102141.94;5032584;28;20025;-51
2022/07/02 09:49:50;;;;;;;3.85;0.70;;;24.40;80.80;;;22.88;47.37;102148.97;5033180;28;20396;-49
2022/07/02 09:52:17;;;;;;;6.03;0.80;;;24.70;81.30;;;22.96;47.50;102148.75;5032739;28;20029;-49
2022/07/02 09:54:45;;;;;;;4.03;0.60;;;24.50;80.40;;;23.07;46.95;102153.69;5031440;28;20036;-51
2022/07/02 09:57:12;;;;;;;2.03;0.40;;;24.60;80.50;;;23.17;47.22;102152.19;5032872;28;20037;-49
2022/07/02 09:59:39;;;;;;;2.45;0.30;;;24.60;80.40;;;23.28;46.75;102139.56;5032870;28;20034;-48
2022/07/02 10:02:19;;;;;;;2.90;0.70;;;24.90;50.10;;;23.39;46.84;102132.56;5032608;28;20404;-49
2022/07/02 10:04:45;;;;;;;2.58;0.50;;;25.00;81.20;;;23.48;47.73;102132.13;5032588;28;20041;-48
2022/07/02 10:07:11;;;;;;;2.03;0.57;;;25.20;81.30;;;23.55;47.62;102130.19;5032728;28;20108;-50
2022/07/02 10:09:39;;;;;;;2.78;0.50;;;24.80;80.70;;;23.62;47.28;102131.03;5032403;28;20064;-50
2022/07/02 10:12:07;;;;;;;6.68;0.80;;;25.30;71.60;;;23.70;47.41;102130.78;5032473;28;20083;-50
2022/07/02 10:14:37;;;;;;;2.03;0.60;;;25.30;81.00;;;23.79;47.71;102123.94;5032525;28;20087;-60
2022/07/02 10:17:03;;;;;;;5.72;0.60;;;25.50;81.10;;;23.86;48.00;102117.50;5035591;28;20041;-60
2022/07/02 10:19:30;;;;;;;1.92;0.38;;;25.40;80.90;;;23.92;47.86;102117.47;5033253;28;20022;-59
2022/07/02 10:21:59;;;;;;;3.10;0.20;;;25.30;81.00;;;23.98;48.19;102108.25;5038857;28;20108;-60
2022/07/02 10:24:26;;;;;;;5.45;0.68;;;25.30;80.70;;;24.05;47.60;102111.84;5034215;28;20476;-60
2022/07/02 10:26:54;;;;;;;0.77;0.40;;;25.40;69.80;;;24.13;47.85;102120.00;5036042;28;20080;-60
2022/07/02 10:29:21;;;;;;;3.92;0.50;;;26.00;65.80;;;24.19;48.33;102116.34;5034069;28;20034;-60
2022/07/02 10:32:00;;;;;;;3.63;0.47;;;25.40;80.80;;;24.24;47.81;102118.44;5034686;28;20447;-60